createdAt,value
2019-06-20T00:00:44.538Z,92.40
2019-06-20T00:03:13.765Z,92.40
2019-06-20T00:05:42.988Z,92.50
2019-06-20T00:08:12.343Z,92.60
2019-06-20T00:10:42.437Z,92.70
2019-06-20T00:13:11.617Z,92.60
2019-06-20T00:15:40.900Z,92.70
2019-06-20T00:18:10.077Z,92.80
2019-06-20T00:20:39.239Z,92.90
2019-06-20T00:23:08.404Z,93.10
2019-06-20T00:25:37.631Z,93.30
2019-06-20T00:28:06.770Z,93.30
2019-06-20T00:30:35.874Z,93.40
2019-06-20T00:33:05.012Z,93.30
2019-06-20T00:35:34.095Z,93.40
2019-06-20T00:38:03.347Z,93.60
2019-06-20T00:40:32.428Z,93.80
2019-06-20T00:43:16.256Z,93.70
2019-06-20T00:45:32.360Z,93.90
2019-06-20T00:48:01.645Z,94.10
2019-06-20T00:50:30.808Z,94.00
2019-06-20T00:53:00.031Z,94.30
2019-06-20T00:55:29.343Z,94.60
2019-06-20T00:57:58.560Z,94.50
2019-06-20T01:00:28.701Z,94.50
2019-06-20T01:02:57.847Z,94.60
2019-06-20T01:05:27.114Z,94.80
2019-06-20T01:07:56.280Z,94.70
2019-06-20T01:10:25.427Z,94.90
2019-06-20T01:12:54.585Z,94.90
2019-06-20T01:15:23.881Z,94.70
2019-06-20T01:17:53.092Z,95.00
2019-06-20T01:20:22.480Z,95.30
2019-06-20T01:22:51.577Z,95.70
2019-06-20T01:25:26.620Z,95.40
2019-06-20T01:27:55.735Z,95.00
2019-06-20T01:30:24.973Z,94.80
2019-06-20T01:32:54.202Z,94.70
2019-06-20T01:35:23.369Z,94.70
2019-06-20T01:37:52.539Z,94.60
2019-06-20T01:40:21.673Z,94.70
2019-06-20T01:42:50.825Z,94.70
2019-06-20T01:45:20.081Z,94.80
2019-06-20T01:47:49.198Z,94.70
2019-06-20T01:50:18.465Z,94.70
2019-06-20T01:52:47.623Z,95.00
2019-06-20T01:55:16.792Z,94.80
2019-06-20T01:57:45.900Z,95.10
2019-06-20T02:00:20.927Z,95.10
2019-06-20T02:02:50.034Z,94.80
2019-06-20T02:05:19.235Z,94.80
2019-06-20T02:07:48.346Z,94.80
2019-06-20T02:10:17.637Z,94.50
2019-06-20T02:12:46.780Z,94.50
2019-06-20T02:15:16.122Z,94.40
2019-06-20T02:17:45.297Z,94.40
2019-06-20T02:20:33.897Z,94.30
2019-06-20T02:23:03.222Z,94.60
2019-06-20T02:25:32.453Z,94.80
2019-06-20T02:28:01.746Z,95.00
2019-06-20T02:30:30.981Z,95.50
2019-06-20T02:33:00.219Z,95.00
2019-06-20T02:35:29.441Z,94.90
2019-06-20T02:37:58.585Z,95.00
2019-06-20T02:40:28.117Z,95.20
2019-06-20T02:42:57.283Z,94.90
2019-06-20T02:45:26.589Z,94.70
2019-06-20T02:47:55.763Z,95.00
2019-06-20T02:50:26.509Z,94.90
2019-06-20T02:52:55.711Z,94.70
2019-06-20T02:55:24.890Z,94.50
2019-06-20T02:57:54.153Z,94.80
2019-06-20T03:00:38.335Z,95.00
2019-06-20T03:03:07.568Z,95.40
2019-06-20T03:05:36.764Z,95.00
2019-06-20T03:08:06.063Z,94.80
2019-06-20T03:10:35.253Z,95.00
2019-06-20T03:13:04.511Z,95.10
2019-06-20T03:15:33.656Z,94.80
2019-06-20T03:18:02.816Z,94.80
2019-06-20T03:20:32.617Z,94.80
2019-06-20T03:23:01.831Z,94.80
2019-06-20T03:25:31.584Z,94.60
2019-06-20T03:28:01.126Z,94.50
2019-06-20T03:30:30.414Z,94.20
2019-06-20T03:32:59.584Z,94.40
2019-06-20T03:35:28.865Z,94.30
2019-06-20T03:37:57.989Z,94.20
2019-06-20T03:40:27.202Z,94.50
2019-06-20T03:42:56.415Z,94.50
2019-06-20T03:45:25.785Z,94.30
2019-06-20T03:47:54.893Z,94.20
2019-06-20T03:50:26.424Z,94.00
2019-06-20T03:53:01.727Z,93.80
2019-06-20T03:55:32.257Z,93.60
2019-06-20T03:58:02.352Z,93.60
2019-06-20T04:00:33.858Z,93.40
2019-06-20T04:03:03.455Z,93.20
2019-06-20T04:05:32.687Z,93.20
2019-06-20T04:08:01.842Z,92.60
2019-06-20T04:10:31.091Z,92.60
2019-06-20T04:13:00.239Z,92.40
2019-06-20T04:15:29.433Z,92.40
2019-06-20T04:17:58.600Z,91.90
2019-06-20T04:20:27.824Z,91.90
2019-06-20T04:22:56.944Z,91.90
2019-06-20T04:25:26.154Z,91.40
2019-06-20T04:27:55.273Z,91.50
2019-06-20T04:30:24.469Z,91.30
2019-06-20T04:32:53.717Z,91.30
2019-06-20T04:35:22.871Z,91.20
2019-06-20T04:37:51.981Z,91.00
2019-06-20T04:40:21.222Z,91.30
2019-06-20T04:42:50.361Z,91.10
2019-06-20T04:45:34.500Z,91.00
2019-06-20T04:47:54.702Z,91.10
2019-06-20T04:50:23.821Z,90.90
2019-06-20T04:52:53.015Z,91.00
2019-06-20T04:55:22.316Z,91.40
2019-06-20T04:57:51.409Z,91.50
2019-06-20T05:00:20.601Z,91.60
2019-06-20T05:02:49.801Z,91.60
2019-06-20T05:05:19.063Z,91.50
2019-06-20T05:07:48.230Z,91.50
2019-06-20T05:10:17.430Z,91.60
2019-06-20T05:12:46.626Z,91.50
2019-06-20T05:15:15.860Z,91.90
2019-06-20T05:17:44.989Z,92.50
2019-06-20T05:20:14.166Z,92.90
2019-06-20T05:22:43.331Z,93.00
2019-06-20T05:25:12.720Z,92.90
2019-06-20T05:27:41.950Z,92.70
2019-06-20T05:30:12.031Z,92.20
2019-06-20T05:32:41.201Z,92.00
2019-06-20T05:35:10.999Z,91.80
2019-06-20T05:37:40.162Z,91.30
2019-06-20T05:40:09.682Z,91.10
2019-06-20T05:42:38.902Z,91.40
2019-06-20T05:45:08.453Z,91.00
2019-06-20T05:47:37.718Z,91.10
2019-06-20T05:50:09.143Z,91.20
2019-06-20T05:52:38.298Z,90.90
2019-06-20T05:55:08.639Z,90.60
2019-06-20T05:57:37.753Z,90.40
2019-06-20T06:00:10.905Z,90.10
2019-06-20T06:02:40.250Z,89.60
2019-06-20T06:05:09.711Z,90.30
2019-06-20T06:07:38.864Z,90.80
2019-06-20T06:10:09.120Z,90.40
2019-06-20T06:12:38.440Z,90.50
2019-06-20T06:15:08.870Z,90.20
2019-06-20T06:17:38.661Z,90.60
2019-06-20T06:20:09.039Z,90.50
2019-06-20T06:22:38.253Z,90.40
2019-06-20T06:25:08.187Z,90.10
2019-06-20T06:27:37.464Z,89.70
2019-06-20T06:30:07.759Z,88.30
2019-06-20T06:32:40.475Z,87.40
2019-06-20T06:35:07.396Z,87.10
2019-06-20T06:37:36.721Z,87.10
2019-06-20T06:40:10.425Z,87.70
2019-06-20T06:42:39.648Z,88.30
2019-06-20T06:45:10.624Z,89.30
2019-06-20T06:47:39.051Z,88.00
2019-06-20T06:50:11.045Z,88.20
2019-06-20T06:52:40.155Z,87.20
2019-06-20T06:55:09.392Z,86.60
2019-06-20T06:57:38.845Z,85.40
2019-06-20T07:00:12.891Z,83.70
2019-06-20T07:02:44.179Z,82.80
2019-06-20T07:05:13.762Z,83.20
2019-06-20T07:07:42.968Z,82.80
2019-06-20T07:10:12.554Z,84.50
2019-06-20T07:12:41.790Z,84.30
2019-06-20T07:15:11.443Z,85.00
2019-06-20T07:17:41.071Z,83.50
2019-06-20T07:20:15.130Z,83.50
2019-06-20T07:22:42.982Z,84.70
2019-06-20T07:25:12.255Z,83.90
2019-06-20T07:27:41.393Z,83.70
2019-06-20T07:30:11.848Z,84.10
2019-06-20T07:32:40.959Z,83.40
2019-06-20T07:35:10.461Z,84.00
2019-06-20T07:37:39.676Z,83.10
2019-06-20T07:40:09.385Z,81.40
2019-06-20T07:42:38.604Z,78.60
2019-06-20T07:45:11.875Z,79.00
2019-06-20T07:47:41.137Z,79.20
2019-06-20T07:50:11.013Z,79.70
2019-06-20T07:52:40.212Z,79.80
2019-06-20T07:55:09.840Z,80.00
2019-06-20T07:57:39.018Z,75.30
2019-06-20T08:00:09.486Z,78.90
2019-06-20T08:02:38.776Z,80.40
2019-06-20T08:05:09.837Z,79.90
2019-06-20T08:07:38.984Z,80.40
2019-06-20T08:10:13.583Z,78.80
2019-06-20T08:12:42.833Z,78.70
2019-06-20T08:15:15.545Z,80.30
2019-06-20T08:17:44.370Z,80.20
2019-06-20T08:20:15.382Z,76.60
2019-06-20T08:22:44.522Z,77.40
2019-06-20T08:25:14.378Z,78.60
2019-06-20T08:27:53.106Z,77.60
2019-06-20T08:30:25.318Z,78.00
2019-06-20T08:32:57.390Z,76.40
2019-06-20T08:35:27.862Z,77.30
2019-06-20T08:37:59.315Z,75.50
2019-06-20T08:40:31.272Z,79.00
2019-06-20T08:43:02.163Z,76.90
2019-06-20T08:45:34.413Z,76.20
2019-06-20T08:48:04.737Z,77.10
2019-06-20T08:50:34.289Z,76.20
2019-06-20T08:53:03.968Z,77.40
2019-06-20T08:55:33.189Z,74.00
2019-06-20T08:58:03.475Z,73.50
2019-06-20T09:00:34.815Z,75.10
2019-06-20T09:03:05.379Z,74.50
2019-06-20T09:05:34.998Z,75.50
2019-06-20T09:08:05.327Z,75.10
2019-06-20T09:10:37.560Z,75.90
2019-06-20T09:13:07.225Z,75.10
2019-06-20T09:15:37.020Z,76.00
2019-06-20T09:18:07.438Z,74.30
2019-06-20T09:20:37.340Z,72.00
2019-06-20T09:23:06.503Z,71.70
2019-06-20T09:25:36.367Z,73.90
2019-06-20T09:28:06.437Z,75.00
2019-06-20T09:30:36.796Z,73.70
2019-06-20T09:33:06.083Z,74.50
2019-06-20T09:35:35.570Z,73.60
2019-06-20T09:38:05.081Z,73.90
2019-06-20T09:40:34.364Z,73.50
2019-06-20T09:43:03.629Z,71.80
2019-06-20T09:45:34.363Z,69.90
2019-06-20T09:48:02.836Z,67.00
2019-06-20T09:50:32.075Z,68.20
2019-06-20T09:53:01.375Z,68.70
2019-06-20T09:55:30.650Z,67.00
2019-06-20T09:58:00.373Z,69.40
2019-06-20T10:00:30.240Z,68.30
2019-06-20T10:02:59.361Z,67.70
2019-06-20T10:05:28.790Z,69.60
2019-06-20T10:07:58.011Z,71.30
2019-06-20T10:10:52.059Z,73.20
2019-06-20T10:13:21.637Z,77.80
2019-06-20T10:15:51.509Z,83.50
2019-06-20T10:18:20.671Z,85.00
2019-06-20T10:20:51.121Z,84.50
2019-06-20T10:23:20.483Z,85.10
2019-06-20T10:25:49.761Z,83.40
2019-06-20T10:28:20.018Z,83.20
2019-06-20T10:30:49.227Z,83.40
2019-06-20T10:33:18.442Z,83.60
2019-06-20T10:35:48.446Z,83.60
2019-06-20T10:38:17.684Z,84.80
2019-06-20T10:40:47.887Z,89.80
2019-06-20T10:43:17.274Z,93.30
2019-06-20T10:45:47.377Z,95.20
2019-06-20T10:48:16.779Z,99.20
2019-06-20T10:50:45.951Z,99.90
2019-06-20T10:53:15.096Z,99.90
2019-06-20T10:55:44.971Z,99.90
2019-06-20T10:58:14.109Z,98.80
2019-06-20T11:00:44.511Z,98.10
2019-06-20T11:03:13.799Z,97.50
2019-06-20T11:05:43.827Z,97.70
2019-06-20T11:08:13.013Z,97.20
2019-06-20T11:10:43.467Z,97.20
2019-06-20T11:13:13.087Z,93.50
2019-06-20T11:15:42.340Z,91.30
2019-06-20T11:18:11.549Z,90.60
2019-06-20T11:20:41.043Z,90.70
2019-06-20T11:23:11.397Z,89.90
2019-06-20T11:25:41.870Z,90.90
2019-06-20T11:28:11.258Z,91.10
2019-06-20T11:30:53.508Z,89.30
2019-06-20T11:33:12.101Z,85.80
2019-06-20T11:35:41.873Z,78.80
2019-06-20T11:38:11.141Z,75.10
2019-06-20T11:40:41.548Z,71.50
2019-06-20T11:43:10.137Z,68.70
2019-06-20T11:45:40.799Z,67.40
2019-06-20T11:48:10.232Z,66.10
2019-06-20T11:50:42.413Z,68.20
2019-06-20T11:53:11.703Z,71.10
2019-06-20T11:55:41.166Z,74.10
2019-06-20T11:58:10.370Z,75.50
2019-06-20T12:00:39.954Z,72.40
2019-06-20T12:03:09.214Z,72.20
2019-06-20T12:05:44.847Z,68.10
2019-06-20T12:08:19.358Z,66.50
2019-06-20T12:10:50.360Z,63.70
2019-06-20T12:13:20.837Z,63.40
2019-06-20T12:15:50.101Z,63.60
2019-06-20T12:18:19.312Z,67.30
2019-06-20T12:20:50.609Z,69.20
2019-06-20T12:23:19.758Z,67.00
2019-06-20T12:25:48.948Z,64.10
2019-06-20T12:28:18.452Z,64.90
2019-06-20T12:30:48.335Z,64.30
2019-06-20T12:33:17.709Z,64.70
2019-06-20T12:35:46.873Z,61.60
2019-06-20T12:38:15.968Z,62.00
2019-06-20T12:40:46.183Z,61.90
2019-06-20T12:43:15.438Z,60.70
2019-06-20T12:45:44.682Z,61.30
2019-06-20T12:48:13.834Z,61.70
2019-06-20T12:50:43.088Z,60.30
2019-06-20T12:53:12.257Z,61.70
2019-06-20T12:55:42.440Z,61.80
2019-06-20T12:58:10.975Z,60.00
2019-06-20T13:00:41.649Z,59.90
2019-06-20T13:03:10.871Z,59.70
2019-06-20T13:05:41.469Z,60.60
2019-06-20T13:08:13.510Z,60.60
2019-06-20T13:10:41.865Z,58.80
2019-06-20T13:13:11.045Z,58.00
2019-06-20T13:15:40.657Z,58.60
2019-06-20T13:18:09.794Z,60.00
2019-06-20T13:20:40.635Z,61.10
2019-06-20T13:23:10.592Z,59.30
2019-06-20T13:25:40.944Z,61.80
2019-06-20T13:28:10.199Z,62.40
2019-06-20T13:30:40.294Z,62.20
2019-06-20T13:33:10.224Z,61.80
2019-06-20T13:35:41.595Z,60.00
2019-06-20T13:38:10.402Z,58.80
2019-06-20T13:40:41.325Z,59.30
2019-06-20T13:43:10.694Z,61.50
2019-06-20T13:45:41.163Z,59.30
2019-06-20T13:48:10.723Z,58.70
2019-06-20T13:50:40.449Z,59.50
2019-06-20T13:53:10.653Z,60.30
2019-06-20T13:55:41.211Z,62.20
2019-06-20T13:58:10.651Z,63.40
2019-06-20T14:00:42.882Z,65.30
2019-06-20T14:03:10.888Z,64.10
2019-06-20T14:05:41.466Z,64.70
2019-06-20T14:08:10.903Z,64.20
2019-06-20T14:10:40.012Z,65.20
2019-06-20T14:13:18.613Z,62.10
2019-06-20T14:15:42.681Z,61.50
2019-06-20T14:18:10.715Z,60.70
2019-06-20T14:20:39.910Z,60.60
2019-06-20T14:23:09.090Z,59.30
2019-06-20T14:25:38.404Z,58.90
2019-06-20T14:28:07.651Z,58.30
2019-06-20T14:30:36.794Z,56.30
2019-06-20T14:33:05.971Z,56.90
2019-06-20T14:35:35.169Z,56.00
2019-06-20T14:38:04.286Z,56.30
2019-06-20T14:40:33.407Z,57.60
2019-06-20T14:43:02.492Z,56.80
2019-06-20T14:45:31.642Z,57.40
2019-06-20T14:48:00.874Z,57.60
2019-06-20T14:50:30.042Z,57.00
2019-06-20T14:52:59.178Z,56.80
2019-06-20T14:55:28.353Z,59.60
2019-06-20T14:57:59.020Z,62.70
2019-06-20T15:00:29.944Z,64.00
2019-06-20T15:02:59.055Z,65.60
2019-06-20T15:05:28.189Z,66.70
2019-06-20T15:07:57.407Z,64.90
2019-06-20T15:10:26.563Z,62.40
2019-06-20T15:12:56.066Z,63.00
2019-06-20T15:15:25.507Z,62.00
2019-06-20T15:17:56.296Z,62.60
2019-06-20T15:20:25.383Z,64.80
2019-06-20T15:22:54.729Z,63.70
2019-06-20T15:25:24.009Z,62.90
2019-06-20T15:27:55.068Z,59.90
2019-06-20T15:30:24.037Z,58.90
2019-06-20T15:33:01.787Z,57.50
2019-06-20T15:35:24.114Z,57.20
2019-06-20T15:37:53.791Z,56.60
2019-06-20T15:40:23.666Z,56.80
2019-06-20T15:42:53.467Z,57.10
2019-06-20T15:45:23.684Z,57.00
2019-06-20T15:47:52.780Z,58.20
2019-06-20T15:50:22.404Z,57.70
2019-06-20T15:52:51.515Z,58.40
2019-06-20T15:55:20.870Z,56.30
2019-06-20T15:57:53.792Z,57.20
2019-06-20T16:00:21.433Z,57.50
2019-06-20T16:02:50.549Z,58.60
2019-06-20T16:05:19.846Z,58.00
2019-06-20T16:07:48.989Z,58.90
2019-06-20T16:10:18.249Z,58.90
2019-06-20T16:12:47.510Z,58.70
2019-06-20T16:15:24.098Z,58.70
2019-06-20T16:17:53.574Z,60.00
2019-06-20T16:20:23.113Z,61.20
2019-06-20T16:22:52.488Z,62.50
2019-06-20T16:25:21.846Z,63.20
2019-06-20T16:27:51.388Z,65.70
2019-06-20T16:30:20.943Z,69.10
2019-06-20T16:32:50.194Z,71.80
2019-06-20T16:35:19.775Z,73.80
2019-06-20T16:38:08.309Z,73.40
2019-06-20T16:40:45.916Z,72.30
2019-06-20T16:43:15.134Z,71.70
2019-06-20T16:45:44.823Z,71.00
2019-06-20T16:48:14.108Z,71.40
2019-06-20T16:50:43.378Z,71.30
2019-06-20T16:53:12.541Z,71.70
2019-06-20T16:55:41.741Z,72.20
2019-06-20T16:58:10.940Z,72.80
2019-06-20T17:00:41.646Z,73.10
2019-06-20T17:03:09.997Z,72.90
2019-06-20T17:05:39.181Z,72.00
2019-06-20T17:08:08.493Z,71.80
2019-06-20T17:10:37.683Z,72.20
2019-06-20T17:13:06.951Z,72.90
2019-06-20T17:15:36.172Z,72.80
2019-06-20T17:18:06.455Z,73.50
2019-06-20T17:20:35.753Z,72.70
2019-06-20T17:23:05.138Z,73.10
2019-06-20T17:25:34.397Z,73.30
2019-06-20T17:28:03.976Z,74.50
2019-06-20T17:30:34.908Z,74.90
2019-06-20T17:33:04.318Z,75.70
2019-06-20T17:35:33.849Z,77.00
2019-06-20T17:38:09.488Z,78.00
2019-06-20T17:40:33.135Z,79.10
2019-06-20T17:43:02.232Z,80.40
2019-06-20T17:45:32.304Z,81.10
2019-06-20T17:48:01.407Z,81.80
2019-06-20T17:50:30.540Z,82.20
2019-06-20T17:52:59.696Z,82.90
2019-06-20T17:55:29.244Z,83.10
2019-06-20T17:57:58.426Z,84.10
2019-06-20T18:00:27.962Z,84.30
2019-06-20T18:02:57.135Z,84.70
2019-06-20T18:05:26.393Z,85.60
2019-06-20T18:07:55.553Z,85.60
2019-06-20T18:10:24.830Z,86.00
2019-06-20T18:12:53.946Z,86.40
2019-06-20T18:15:23.846Z,85.90
2019-06-20T18:17:52.926Z,86.60
2019-06-20T18:20:22.229Z,86.70
2019-06-20T18:22:51.355Z,86.90
2019-06-20T18:25:21.291Z,87.40
2019-06-20T18:27:50.432Z,87.70
2019-06-20T18:30:22.618Z,88.00
2019-06-20T18:32:51.765Z,88.00
2019-06-20T18:35:20.938Z,87.80
2019-06-20T18:37:50.091Z,87.60
2019-06-20T18:40:19.377Z,88.10
2019-06-20T18:42:48.592Z,88.10
2019-06-20T18:45:17.845Z,88.90
2019-06-20T18:47:46.968Z,88.80
2019-06-20T18:50:16.199Z,89.20
2019-06-20T18:52:52.111Z,89.80
2019-06-20T18:55:16.269Z,89.20
2019-06-20T18:57:45.437Z,89.40
2019-06-20T19:00:14.894Z,89.10
2019-06-20T19:02:43.999Z,89.50
2019-06-20T19:05:13.650Z,89.90
2019-06-20T19:07:42.855Z,90.20
2019-06-20T19:10:12.633Z,90.30
2019-06-20T19:12:41.815Z,90.70
2019-06-20T19:15:11.861Z,90.60
2019-06-20T19:17:41.088Z,91.00
2019-06-20T19:20:10.782Z,91.50
2019-06-20T19:22:39.938Z,91.40
2019-06-20T19:25:09.711Z,91.60
2019-06-20T19:27:46.009Z,91.90
2019-06-20T19:30:12.057Z,92.20
2019-06-20T19:32:41.319Z,92.40
2019-06-20T19:35:10.874Z,92.80
2019-06-20T19:37:40.204Z,93.10
2019-06-20T19:40:10.658Z,92.90
2019-06-20T19:42:39.844Z,92.70
2019-06-20T19:45:11.285Z,92.80
2019-06-20T19:47:40.785Z,92.80
2019-06-20T19:50:10.465Z,92.40
2019-06-20T19:52:39.953Z,92.40
2019-06-20T19:55:09.898Z,92.60
2019-06-20T19:57:39.308Z,92.80
2019-06-20T20:00:09.550Z,93.10
2019-06-20T20:02:38.840Z,93.10
2019-06-20T20:05:19.112Z,93.50
2019-06-20T20:07:40.918Z,93.70
2019-06-20T20:10:10.504Z,93.60
2019-06-20T20:12:39.690Z,93.70
2019-06-20T20:15:09.869Z,93.80
2019-06-20T20:17:39.068Z,93.70
2019-06-20T20:20:08.511Z,93.90
2019-06-20T20:22:37.822Z,93.90
2019-06-20T20:25:08.742Z,94.00
2019-06-20T20:27:37.280Z,93.90
2019-06-20T20:30:11.202Z,93.90
2019-06-20T20:32:40.964Z,94.10
2019-06-20T20:35:10.256Z,94.00
2019-06-20T20:37:39.544Z,94.00
2019-06-20T20:40:11.936Z,93.80
2019-06-20T20:42:41.102Z,93.60
2019-06-20T20:45:11.771Z,93.70
2019-06-20T20:47:40.999Z,94.10
2019-06-20T20:50:10.972Z,94.10
2019-06-20T20:52:40.154Z,94.00
2019-06-20T20:55:10.375Z,93.80
2019-06-20T20:57:39.729Z,93.90
2019-06-20T21:00:23.977Z,94.20
2019-06-20T21:02:54.685Z,93.90
2019-06-20T21:05:24.030Z,93.90
2019-06-20T21:07:53.325Z,94.30
2019-06-20T21:10:22.467Z,94.40
2019-06-20T21:12:51.618Z,94.60
2019-06-20T21:15:22.375Z,94.90
2019-06-20T21:17:51.657Z,95.20
2019-06-20T21:20:20.939Z,95.50
2019-06-20T21:22:50.069Z,95.70
2019-06-20T21:25:19.349Z,96.00
2019-06-20T21:27:48.491Z,96.20
2019-06-20T21:30:18.280Z,96.30
2019-06-20T21:32:47.469Z,96.70
2019-06-20T21:35:16.965Z,96.90
2019-06-20T21:37:46.067Z,97.10
2019-06-20T21:40:16.614Z,97.10
2019-06-20T21:42:45.722Z,97.20
2019-06-20T21:45:15.224Z,97.50
2019-06-20T21:47:44.370Z,97.70
2019-06-20T21:50:13.738Z,97.20
2019-06-20T21:52:42.942Z,96.90
2019-06-20T21:55:12.595Z,96.60
2019-06-20T21:57:41.748Z,96.10
2019-06-20T22:00:16.678Z,95.90
2019-06-20T22:02:45.888Z,96.10
2019-06-20T22:05:15.276Z,96.30
2019-06-20T22:07:44.402Z,96.70
2019-06-20T22:10:14.073Z,96.90
2019-06-20T22:12:43.277Z,96.90
2019-06-20T22:15:12.643Z,97.00
2019-06-20T22:17:41.824Z,96.90
2019-06-20T22:20:13.102Z,96.80
2019-06-20T22:22:42.343Z,96.50
2019-06-20T22:25:11.895Z,96.60
2019-06-20T22:27:41.045Z,96.80
2019-06-20T22:30:12.002Z,96.80
2019-06-20T22:32:40.463Z,97.00
2019-06-20T22:35:10.018Z,97.10
2019-06-20T22:37:39.352Z,97.30
2019-06-20T22:40:09.901Z,97.50
2019-06-20T22:42:39.131Z,97.50
2019-06-20T22:45:08.993Z,97.50
2019-06-20T22:47:38.208Z,97.50
2019-06-20T22:50:08.055Z,97.80
2019-06-20T22:52:37.226Z,97.90
2019-06-20T22:55:09.821Z,97.90
2019-06-20T22:57:38.958Z,97.90
2019-06-20T23:00:09.754Z,97.80
2019-06-20T23:02:39.031Z,97.90
2019-06-20T23:05:08.922Z,98.00
2019-06-20T23:07:38.199Z,98.40
2019-06-20T23:10:10.982Z,98.60
2019-06-20T23:12:38.928Z,98.30
2019-06-20T23:15:08.994Z,98.70
2019-06-20T23:17:38.223Z,98.80
2019-06-20T23:20:08.470Z,98.90
2019-06-20T23:22:37.690Z,99.30
2019-06-20T23:25:08.352Z,99.30
2019-06-20T23:27:37.497Z,99.30
2019-06-20T23:30:08.279Z,99.40
2019-06-20T23:32:37.484Z,99.40
2019-06-20T23:35:07.128Z,99.60
2019-06-20T23:37:36.468Z,99.60
2019-06-20T23:40:07.166Z,99.90
2019-06-20T23:42:36.445Z,99.90
2019-06-20T23:45:07.506Z,99.90
2019-06-20T23:47:35.860Z,99.70
2019-06-20T23:50:10.292Z,99.60
2019-06-20T23:52:43.625Z,99.60
2019-06-20T23:55:12.814Z,99.90
2019-06-20T23:57:42.025Z,99.90
